sensor_id;sensor_type;location;lat;lon;timestamp;pressure;altitude;pressure_sealevel;temperature;humidity
67377;BME280;54261;46.086;6.588;2023-11-22T00:02:31;92379.75;;;6.93;40.80
67377;BME280;54261;46.086;6.588;2023-11-22T00:07:33;92382.13;;;6.94;40.40
67377;BME280;54261;46.086;6.588;2023-11-22T00:12:35;92386.47;;;7.04;40.68
67377;BME280;54261;46.086;6.588;2023-11-22T00:17:40;92390.31;;;7.12;40.32
67377;BME280;54261;46.086;6.588;2023-11-22T00:22:43;92378.97;;;6.78;40.50
67377;BME280;54261;46.086;6.588;2023-11-22T00:27:46;92387.16;;;6.96;40.59
67377;BME280;54261;46.086;6.588;2023-11-22T00:32:48;92378.56;;;6.71;40.89
67377;BME280;54261;46.086;6.588;2023-11-22T00:37:50;92373.47;;;6.56;41.59
67377;BME280;54261;46.086;6.588;2023-11-22T00:42:53;92361.94;;;6.60;41.71
67377;BME280;54261;46.086;6.588;2023-11-22T00:47:55;92370.41;;;6.62;41.54
67377;BME280;54261;46.086;6.588;2023-11-22T00:52:57;92363.44;;;6.66;40.98
67377;BME280;54261;46.086;6.588;2023-11-22T00:57:59;92376.34;;;6.59;41.48
67377;BME280;54261;46.086;6.588;2023-11-22T01:03:05;92380.81;;;6.64;41.54
67377;BME280;54261;46.086;6.588;2023-11-22T01:08:07;92349.09;;;6.62;41.03
67377;BME280;54261;46.086;6.588;2023-11-22T01:13:09;92387.59;;;6.56;40.70
67377;BME280;54261;46.086;6.588;2023-11-22T01:18:11;92388.81;;;6.64;40.32
67377;BME280;54261;46.086;6.588;2023-11-22T01:23:13;92387.19;;;6.49;41.08
67377;BME280;54261;46.086;6.588;2023-11-22T01:28:16;92378.03;;;6.55;40.95
67377;BME280;54261;46.086;6.588;2023-11-22T01:33:18;92377.53;;;6.53;41.15
67377;BME280;54261;46.086;6.588;2023-11-22T01:38:20;92386.31;;;6.53;41.04
67377;BME280;54261;46.086;6.588;2023-11-22T01:43:23;92381.56;;;6.50;41.08
67377;BME280;54261;46.086;6.588;2023-11-22T01:48:26;92368.78;;;6.33;40.87
67377;BME280;54261;46.086;6.588;2023-11-22T01:53:28;92379.81;;;6.60;40.88
67377;BME280;54261;46.086;6.588;2023-11-22T01:58:30;92382.75;;;6.58;40.51
67377;BME280;54261;46.086;6.588;2023-11-22T02:03:33;92389.69;;;6.59;40.70
67377;BME280;54261;46.086;6.588;2023-11-22T02:08:35;92382.56;;;6.41;40.62
67377;BME280;54261;46.086;6.588;2023-11-22T02:13:37;92409.69;;;6.43;41.04
67377;BME280;54261;46.086;6.588;2023-11-22T02:18:39;92408.97;;;6.23;40.61
67377;BME280;54261;46.086;6.588;2023-11-22T02:23:43;92383.94;;;6.05;41.75
67377;BME280;54261;46.086;6.588;2023-11-22T02:28:45;92413.13;;;6.29;41.60
67377;BME280;54261;46.086;6.588;2023-11-22T02:33:47;92380.53;;;6.32;41.88
67377;BME280;54261;46.086;6.588;2023-11-22T02:38:49;92404.66;;;6.08;42.87
67377;BME280;54261;46.086;6.588;2023-11-22T02:43:52;92418.66;;;6.33;42.66
67377;BME280;54261;46.086;6.588;2023-11-22T02:48:54;92419.25;;;6.30;42.50
67377;BME280;54261;46.086;6.588;2023-11-22T02:53:56;92424.50;;;6.49;42.58
67377;BME280;54261;46.086;6.588;2023-11-22T02:58:58;92428.56;;;6.13;42.98
67377;BME280;54261;46.086;6.588;2023-11-22T03:04:03;92413.88;;;6.16;42.15
67377;BME280;54261;46.086;6.588;2023-11-22T03:09:06;92418.44;;;5.96;42.72
67377;BME280;54261;46.086;6.588;2023-11-22T03:14:10;92417.63;;;6.15;43.24
67377;BME280;54261;46.086;6.588;2023-11-22T03:19:12;92418.19;;;4.62;46.61
67377;BME280;54261;46.086;6.588;2023-11-22T03:24:15;92417.06;;;5.99;44.36
67377;BME280;54261;46.086;6.588;2023-11-22T03:29:17;92418.81;;;5.89;42.37
67377;BME280;54261;46.086;6.588;2023-11-22T03:34:20;92427.09;;;5.88;42.79
67377;BME280;54261;46.086;6.588;2023-11-22T03:39:22;92426.50;;;5.72;42.96
67377;BME280;54261;46.086;6.588;2023-11-22T03:44:24;92425.41;;;5.73;42.89
67377;BME280;54261;46.086;6.588;2023-11-22T03:49:26;92421.16;;;6.10;42.37
67377;BME280;54261;46.086;6.588;2023-11-22T03:54:28;92419.81;;;6.27;42.93
67377;BME280;54261;46.086;6.588;2023-11-22T03:59:30;92425.47;;;6.39;42.47
67377;BME280;54261;46.086;6.588;2023-11-22T04:04:32;92428.00;;;6.49;41.77
67377;BME280;54261;46.086;6.588;2023-11-22T04:09:34;92430.94;;;6.48;41.62
67377;BME280;54261;46.086;6.588;2023-11-22T04:14:36;92438.06;;;6.19;41.75
67377;BME280;54261;46.086;6.588;2023-11-22T04:19:38;92431.66;;;6.20;41.97
67377;BME280;54261;46.086;6.588;2023-11-22T04:24:40;92450.91;;;6.50;41.78
67377;BME280;54261;46.086;6.588;2023-11-22T04:29:42;92451.91;;;5.83;42.24
67377;BME280;54261;46.086;6.588;2023-11-22T04:34:44;92455.38;;;5.83;42.74
67377;BME280;54261;46.086;6.588;2023-11-22T04:39:45;92446.09;;;5.81;42.15
67377;BME280;54261;46.086;6.588;2023-11-22T04:44:51;92459.81;;;5.88;43.13
67377;BME280;54261;46.086;6.588;2023-11-22T04:49:53;92461.06;;;5.77;43.10
67377;BME280;54261;46.086;6.588;2023-11-22T04:54:55;92453.09;;;5.52;44.32
67377;BME280;54261;46.086;6.588;2023-11-22T04:59:56;92456.59;;;6.10;42.88
67377;BME280;54261;46.086;6.588;2023-11-22T05:04:58;92467.84;;;6.41;42.85
67377;BME280;54261;46.086;6.588;2023-11-22T05:10:01;92463.94;;;5.80;43.58
67377;BME280;54261;46.086;6.588;2023-11-22T05:15:05;92469.09;;;5.72;43.63
67377;BME280;54261;46.086;6.588;2023-11-22T05:20:08;92488.34;;;4.36;46.77
67377;BME280;54261;46.086;6.588;2023-11-22T05:25:11;92495.13;;;5.31;45.01
67377;BME280;54261;46.086;6.588;2023-11-22T05:30:13;92509.56;;;5.74;44.16
67377;BME280;54261;46.086;6.588;2023-11-22T05:35:17;92504.56;;;6.10;43.81
67377;BME280;54261;46.086;6.588;2023-11-22T05:40:18;92515.34;;;6.19;42.73
67377;BME280;54261;46.086;6.588;2023-11-22T05:45:20;92514.16;;;6.45;42.82
67377;BME280;54261;46.086;6.588;2023-11-22T05:50:23;92519.00;;;5.85;43.06
67377;BME280;54261;46.086;6.588;2023-11-22T05:55:25;92532.78;;;6.11;42.95
67377;BME280;54261;46.086;6.588;2023-11-22T06:00:26;92516.72;;;5.97;43.43
67377;BME280;54261;46.086;6.588;2023-11-22T06:05:28;92521.53;;;5.27;43.75
67377;BME280;54261;46.086;6.588;2023-11-22T06:10:30;92526.19;;;5.41;44.40
67377;BME280;54261;46.086;6.588;2023-11-22T06:15:32;92528.78;;;5.71;44.27
67377;BME280;54261;46.086;6.588;2023-11-22T06:20:34;92537.94;;;6.22;43.31
67377;BME280;54261;46.086;6.588;2023-11-22T06:25:36;92503.66;;;6.34;42.33
67377;BME280;54261;46.086;6.588;2023-11-22T06:30:38;92545.59;;;5.90;42.38
67377;BME280;54261;46.086;6.588;2023-11-22T06:35:40;92546.66;;;6.47;42.78
67377;BME280;54261;46.086;6.588;2023-11-22T06:40:44;92555.00;;;6.59;42.02
67377;BME280;54261;46.086;6.588;2023-11-22T06:45:46;92556.53;;;5.89;43.18
67377;BME280;54261;46.086;6.588;2023-11-22T06:50:48;92560.22;;;6.50;42.40
67377;BME280;54261;46.086;6.588;2023-11-22T06:55:50;92528.56;;;5.86;42.62
67377;BME280;54261;46.086;6.588;2023-11-22T07:00:52;92554.88;;;6.50;42.40
67377;BME280;54261;46.086;6.588;2023-11-22T07:05:54;92555.22;;;6.82;41.87
67377;BME280;54261;46.086;6.588;2023-11-22T07:10:56;92566.94;;;7.00;40.96
67377;BME280;54261;46.086;6.588;2023-11-22T07:15:58;92579.78;;;6.98;41.05
67377;BME280;54261;46.086;6.588;2023-11-22T07:21:01;92585.78;;;6.71;41.70
67377;BME280;54261;46.086;6.588;2023-11-22T07:26:04;92580.09;;;6.77;41.82
67377;BME280;54261;46.086;6.588;2023-11-22T07:31:08;92565.31;;;6.47;41.76
67377;BME280;54261;46.086;6.588;2023-11-22T07:36:11;92586.81;;;6.17;42.48
67377;BME280;54261;46.086;6.588;2023-11-22T07:41:16;92591.06;;;6.18;43.07
67377;BME280;54261;46.086;6.588;2023-11-22T07:46:17;92556.47;;;6.13;42.93
67377;BME280;54261;46.086;6.588;2023-11-22T07:51:21;92601.66;;;6.81;42.42
67377;BME280;54261;46.086;6.588;2023-11-22T07:56:25;92609.00;;;6.89;42.15
67377;BME280;54261;46.086;6.588;2023-11-22T08:01:27;92607.78;;;6.81;42.49
67377;BME280;54261;46.086;6.588;2023-11-22T08:06:32;92616.66;;;7.29;42.32
67377;BME280;54261;46.086;6.588;2023-11-22T08:11:35;92626.94;;;7.50;41.31
67377;BME280;54261;46.086;6.588;2023-11-22T08:16:37;92635.03;;;7.31;41.03
67377;BME280;54261;46.086;6.588;2023-11-22T08:21:41;92634.63;;;7.37;40.97
67377;BME280;54261;46.086;6.588;2023-11-22T08:26:43;92637.91;;;7.01;41.06
67377;BME280;54261;46.086;6.588;2023-11-22T08:31:45;92619.59;;;6.94;40.50
67377;BME280;54261;46.086;6.588;2023-11-22T08:36:47;92628.81;;;7.02;40.52
67377;BME280;54261;46.086;6.588;2023-11-22T08:41:49;92637.00;;;7.25;40.24
67377;BME280;54261;46.086;6.588;2023-11-22T08:46:52;92644.88;;;7.49;40.18
67377;BME280;54261;46.086;6.588;2023-11-22T08:51:55;92641.88;;;7.51;39.98
67377;BME280;54261;46.086;6.588;2023-11-22T08:56:57;92648.31;;;7.50;40.00
67377;BME280;54261;46.086;6.588;2023-11-22T09:01:59;92656.59;;;7.34;40.20
67377;BME280;54261;46.086;6.588;2023-11-22T09:07:01;92654.63;;;7.40;40.59
67377;BME280;54261;46.086;6.588;2023-11-22T09:12:03;92656.63;;;7.15;40.14
67377;BME280;54261;46.086;6.588;2023-11-22T09:17:07;92659.31;;;6.58;41.54
67377;BME280;54261;46.086;6.588;2023-11-22T09:22:11;92648.75;;;7.24;40.75
67377;BME280;54261;46.086;6.588;2023-11-22T09:27:13;92650.94;;;7.83;40.88
67377;BME280;54261;46.086;6.588;2023-11-22T09:32:19;92652.13;;;7.77;39.16
67377;BME280;54261;46.086;6.588;2023-11-22T09:37:21;92662.41;;;6.65;41.95
67377;BME280;54261;46.086;6.588;2023-11-22T09:42:23;92645.22;;;5.35;44.07
67377;BME280;54261;46.086;6.588;2023-11-22T09:47:27;92654.66;;;6.88;42.09
67377;BME280;54261;46.086;6.588;2023-11-22T09:52:33;92655.81;;;6.81;42.83
67377;BME280;54261;46.086;6.588;2023-11-22T09:57:38;92651.97;;;7.40;42.12
67377;BME280;54261;46.086;6.588;2023-11-22T10:02:40;92653.31;;;6.66;41.74
67377;BME280;54261;46.086;6.588;2023-11-22T10:07:42;92631.53;;;7.63;40.93
67377;BME280;54261;46.086;6.588;2023-11-22T10:12:44;92643.44;;;5.79;44.77
67377;BME280;54261;46.086;6.588;2023-11-22T10:17:53;92635.50;;;7.19;41.21
67377;BME280;54261;46.086;6.588;2023-11-22T10:22:57;92633.31;;;7.54;41.29
67377;BME280;54261;46.086;6.588;2023-11-22T10:27:59;92639.41;;;6.06;42.51
67377;BME280;54261;46.086;6.588;2023-11-22T10:33:03;92632.88;;;7.47;41.89
67377;BME280;54261;46.086;6.588;2023-11-22T10:38:08;92616.09;;;8.44;40.96
67377;BME280;54261;46.086;6.588;2023-11-22T10:43:16;92629.75;;;6.54;41.95
67377;BME280;54261;46.086;6.588;2023-11-22T10:48:19;92628.22;;;5.85;44.28
67377;BME280;54261;46.086;6.588;2023-11-22T10:53:33;92625.06;;;7.98;41.95
67377;BME280;54261;46.086;6.588;2023-11-22T10:58:41;92636.06;;;5.47;46.00
67377;BME280;54261;46.086;6.588;2023-11-22T11:03:56;92620.97;;;8.14;41.65
67377;BME280;54261;46.086;6.588;2023-11-22T11:09:06;92621.25;;;5.06;44.57
67377;BME280;54261;46.086;6.588;2023-11-22T11:14:10;92638.19;;;4.40;49.52
67377;BME280;54261;46.086;6.588;2023-11-22T11:19:14;92640.28;;;7.03;43.92
67377;BME280;54261;46.086;6.588;2023-11-22T11:24:17;92639.38;;;7.88;43.01
67377;BME280;54261;46.086;6.588;2023-11-22T11:29:33;92642.63;;;4.55;47.61
67377;BME280;54261;46.086;6.588;2023-11-22T11:34:51;92637.41;;;6.42;45.84
67377;BME280;54261;46.086;6.588;2023-11-22T11:39:52;92620.91;;;5.72;46.20
67377;BME280;54261;46.086;6.588;2023-11-22T11:45:05;92627.22;;;6.24;44.06
67377;BME280;54261;46.086;6.588;2023-11-22T11:50:09;92647.31;;;5.38;44.92
67377;BME280;54261;46.086;6.588;2023-11-22T11:55:10;92652.47;;;7.42;42.41
67377;BME280;54261;46.086;6.588;2023-11-22T12:00:13;92649.91;;;7.51;41.61
67377;BME280;54261;46.086;6.588;2023-11-22T12:05:18;92661.09;;;6.00;45.07
67377;BME280;54261;46.086;6.588;2023-11-22T12:10:20;92667.28;;;5.01;46.80
67377;BME280;54261;46.086;6.588;2023-11-22T12:15:23;92671.94;;;6.71;44.03
67377;BME280;54261;46.086;6.588;2023-11-22T12:20:26;92608.09;;;4.85;45.52
67377;BME280;54261;46.086;6.588;2023-11-22T12:25:32;92657.88;;;6.46;44.49
67377;BME280;54261;46.086;6.588;2023-11-22T12:30:35;92672.81;;;7.05;44.03
67377;BME280;54261;46.086;6.588;2023-11-22T12:35:37;92664.25;;;8.16;42.29
67377;BME280;54261;46.086;6.588;2023-11-22T12:40:44;92651.25;;;7.34;41.22
67377;BME280;54261;46.086;6.588;2023-11-22T12:45:47;92621.75;;;8.43;40.95
67377;BME280;54261;46.086;6.588;2023-11-22T12:50:52;92665.94;;;4.69;47.59
67377;BME280;54261;46.086;6.588;2023-11-22T12:55:56;92662.94;;;6.23;45.38
67377;BME280;54261;46.086;6.588;2023-11-22T13:00:58;92657.09;;;6.84;44.44
67377;BME280;54261;46.086;6.588;2023-11-22T13:06:02;92638.69;;;6.44;45.97
67377;BME280;54261;46.086;6.588;2023-11-22T13:11:05;92646.19;;;7.66;43.33
67377;BME280;54261;46.086;6.588;2023-11-22T13:16:09;92671.66;;;8.19;40.56
67377;BME280;54261;46.086;6.588;2023-11-22T13:21:11;92678.28;;;5.59;46.19
67377;BME280;54261;46.086;6.588;2023-11-22T13:26:13;92692.63;;;5.63;47.65
67377;BME280;54261;46.086;6.588;2023-11-22T13:31:15;92700.31;;;7.72;42.92
67377;BME280;54261;46.086;6.588;2023-11-22T13:36:17;92691.19;;;5.76;44.67
67377;BME280;54261;46.086;6.588;2023-11-22T13:41:19;92699.41;;;4.14;48.59
67377;BME280;54261;46.086;6.588;2023-11-22T13:46:21;92718.22;;;5.24;45.95
67377;BME280;54261;46.086;6.588;2023-11-22T13:51:23;92707.69;;;6.70;44.46
67377;BME280;54261;46.086;6.588;2023-11-22T13:56:26;92709.16;;;6.81;44.37
67377;BME280;54261;46.086;6.588;2023-11-22T14:01:28;92716.56;;;5.68;44.77
67377;BME280;54261;46.086;6.588;2023-11-22T14:06:30;92713.84;;;6.90;44.02
67377;BME280;54261;46.086;6.588;2023-11-22T14:11:32;92724.41;;;5.83;45.48
67377;BME280;54261;46.086;6.588;2023-11-22T14:16:36;92729.66;;;7.58;41.38
67377;BME280;54261;46.086;6.588;2023-11-22T14:21:40;92736.06;;;5.88;43.61
67377;BME280;54261;46.086;6.588;2023-11-22T14:26:42;92729.88;;;5.68;44.40
67377;BME280;54261;46.086;6.588;2023-11-22T14:31:44;92734.84;;;6.53;42.23
67377;BME280;54261;46.086;6.588;2023-11-22T14:36:46;92730.06;;;3.50;48.19
67377;BME280;54261;46.086;6.588;2023-11-22T14:41:48;92753.94;;;3.24;50.16
67377;BME280;54261;46.086;6.588;2023-11-22T14:46:50;92755.59;;;5.03;46.94
67377;BME280;54261;46.086;6.588;2023-11-22T14:51:53;92769.44;;;6.82;43.82
67377;BME280;54261;46.086;6.588;2023-11-22T14:56:55;92782.00;;;4.94;46.51
67377;BME280;54261;46.086;6.588;2023-11-22T15:02:01;92796.94;;;5.35;45.95
67377;BME280;54261;46.086;6.588;2023-11-22T15:07:06;92809.69;;;6.86;43.82
67377;BME280;54261;46.086;6.588;2023-11-22T15:12:08;92819.28;;;6.33;44.09
67377;BME280;54261;46.086;6.588;2023-11-22T15:17:13;92827.22;;;6.92;43.67
67377;BME280;54261;46.086;6.588;2023-11-22T15:22:15;92836.66;;;7.47;41.25
67377;BME280;54261;46.086;6.588;2023-11-22T15:27:17;92845.66;;;7.32;41.84
67377;BME280;54261;46.086;6.588;2023-11-22T15:32:19;92838.38;;;7.57;41.95
67377;BME280;54261;46.086;6.588;2023-11-22T15:37:21;92856.66;;;8.21;39.51
67377;BME280;54261;46.086;6.588;2023-11-22T15:42:23;92859.28;;;7.12;40.77
67377;BME280;54261;46.086;6.588;2023-11-22T15:47:24;92864.63;;;7.31;40.65
67377;BME280;54261;46.086;6.588;2023-11-22T15:52:26;92878.78;;;7.31;40.21
67377;BME280;54261;46.086;6.588;2023-11-22T15:57:30;92851.88;;;7.47;39.58
67377;BME280;54261;46.086;6.588;2023-11-22T16:02:32;92889.34;;;7.61;39.82
67377;BME280;54261;46.086;6.588;2023-11-22T16:07:34;92910.47;;;7.38;39.58
67377;BME280;54261;46.086;6.588;2023-11-22T16:12:36;92872.59;;;7.55;38.33
67377;BME280;54261;46.086;6.588;2023-11-22T16:17:38;92905.22;;;7.71;38.19
67377;BME280;54261;46.086;6.588;2023-11-22T16:22:41;92915.75;;;7.62;38.09
67377;BME280;54261;46.086;6.588;2023-11-22T16:27:46;92893.19;;;7.11;39.12
67377;BME280;54261;46.086;6.588;2023-11-22T16:32:48;92897.69;;;7.35;38.84
67377;BME280;54261;46.086;6.588;2023-11-22T16:37:50;92878.16;;;7.40;37.48
67377;BME280;54261;46.086;6.588;2023-11-22T16:42:52;92896.56;;;7.60;38.40
67377;BME280;54261;46.086;6.588;2023-11-22T16:47:54;92901.41;;;7.77;37.78
67377;BME280;54261;46.086;6.588;2023-11-22T16:52:56;92900.75;;;8.05;37.53
67377;BME280;54261;46.086;6.588;2023-11-22T16:57:58;92909.06;;;8.03;37.47
67377;BME280;54261;46.086;6.588;2023-11-22T17:03:04;92917.50;;;8.11;37.02
67377;BME280;54261;46.086;6.588;2023-11-22T17:08:07;92920.25;;;7.86;37.14
67377;BME280;54261;46.086;6.588;2023-11-22T17:13:09;92942.78;;;7.61;37.62
67377;BME280;54261;46.086;6.588;2023-11-22T17:18:13;92964.75;;;4.89;42.81
67377;BME280;54261;46.086;6.588;2023-11-22T17:23:15;92975.22;;;5.40;42.48
67377;BME280;54261;46.086;6.588;2023-11-22T17:28:17;92976.38;;;5.19;42.45
67377;BME280;54261;46.086;6.588;2023-11-22T17:33:19;92999.81;;;5.88;41.06
67377;BME280;54261;46.086;6.588;2023-11-22T17:38:21;93003.34;;;4.65;44.62
67377;BME280;54261;46.086;6.588;2023-11-22T17:43:23;93005.84;;;5.43;42.89
67377;BME280;54261;46.086;6.588;2023-11-22T17:48:25;93019.81;;;4.57;43.74
67377;BME280;54261;46.086;6.588;2023-11-22T17:53:27;93026.69;;;5.10;43.52
67377;BME280;54261;46.086;6.588;2023-11-22T17:58:30;93021.66;;;5.03;43.03
67377;BME280;54261;46.086;6.588;2023-11-22T18:03:33;93023.66;;;5.53;43.04
67377;BME280;54261;46.086;6.588;2023-11-22T18:08:36;93037.84;;;5.22;43.51
67377;BME280;54261;46.086;6.588;2023-11-22T18:13:38;93046.50;;;5.75;42.10
67377;BME280;54261;46.086;6.588;2023-11-22T18:18:40;93057.72;;;5.66;41.83
67377;BME280;54261;46.086;6.588;2023-11-22T18:23:42;93071.84;;;5.51;41.88
67377;BME280;54261;46.086;6.588;2023-11-22T18:28:44;93068.94;;;5.53;42.17
67377;BME280;54261;46.086;6.588;2023-11-22T18:33:46;93086.69;;;5.78;41.02
67377;BME280;54261;46.086;6.588;2023-11-22T18:38:49;93099.56;;;5.50;42.23
67377;BME280;54261;46.086;6.588;2023-11-22T18:43:50;93095.34;;;4.72;43.86
67377;BME280;54261;46.086;6.588;2023-11-22T18:48:52;93098.34;;;2.94;47.20
67377;BME280;54261;46.086;6.588;2023-11-22T18:53:54;93111.19;;;2.75;47.59
67377;BME280;54261;46.086;6.588;2023-11-22T18:58:56;93097.59;;;1.84;49.91
67377;BME280;54261;46.086;6.588;2023-11-22T19:03:58;93103.06;;;3.25;47.52
67377;BME280;54261;46.086;6.588;2023-11-22T19:09:00;93107.72;;;4.09;46.17
67377;BME280;54261;46.086;6.588;2023-11-22T19:14:03;93111.03;;;4.89;44.62
67377;BME280;54261;46.086;6.588;2023-11-22T19:19:05;93119.56;;;4.96;44.03
67377;BME280;54261;46.086;6.588;2023-11-22T19:24:07;93124.31;;;5.40;42.95
67377;BME280;54261;46.086;6.588;2023-11-22T19:29:09;93126.19;;;5.56;43.15
67377;BME280;54261;46.086;6.588;2023-11-22T19:34:13;93131.13;;;5.88;41.91
67377;BME280;54261;46.086;6.588;2023-11-22T19:39:16;93133.38;;;5.45;42.40
67377;BME280;54261;46.086;6.588;2023-11-22T19:44:18;93135.78;;;5.41;42.26
67377;BME280;54261;46.086;6.588;2023-11-22T19:49:23;93137.09;;;5.64;41.71
67377;BME280;54261;46.086;6.588;2023-11-22T19:54:25;93154.38;;;5.72;41.13
67377;BME280;54261;46.086;6.588;2023-11-22T19:59:27;93142.44;;;5.23;41.67
67377;BME280;54261;46.086;6.588;2023-11-22T20:04:29;93155.72;;;5.38;41.24
67377;BME280;54261;46.086;6.588;2023-11-22T20:09:31;93153.59;;;5.20;42.17
67377;BME280;54261;46.086;6.588;2023-11-22T20:14:33;93170.09;;;5.63;42.07
67377;BME280;54261;46.086;6.588;2023-11-22T20:19:35;93160.09;;;4.13;45.61
67377;BME280;54261;46.086;6.588;2023-11-22T20:24:37;93152.47;;;4.43;44.76
67377;BME280;54261;46.086;6.588;2023-11-22T20:29:41;93162.78;;;4.29;45.70
67377;BME280;54261;46.086;6.588;2023-11-22T20:34:43;93153.19;;;4.12;45.83
67377;BME280;54261;46.086;6.588;2023-11-22T20:39:45;93122.00;;;3.97;45.49
67377;BME280;54261;46.086;6.588;2023-11-22T20:44:47;93142.97;;;5.25;44.34
67377;BME280;54261;46.086;6.588;2023-11-22T20:49:49;93154.91;;;5.64;43.12
67377;BME280;54261;46.086;6.588;2023-11-22T20:54:52;93145.91;;;5.54;42.76
67377;BME280;54261;46.086;6.588;2023-11-22T20:59:54;93145.28;;;5.83;42.11
67377;BME280;54261;46.086;6.588;2023-11-22T21:04:56;93144.75;;;3.24;47.86
67377;BME280;54261;46.086;6.588;2023-11-22T21:09:58;93144.06;;;1.97;50.51
67377;BME280;54261;46.086;6.588;2023-11-22T21:15:01;93131.72;;;2.57;49.51
67377;BME280;54261;46.086;6.588;2023-11-22T21:20:04;93142.13;;;1.48;52.24
67377;BME280;54261;46.086;6.588;2023-11-22T21:25:09;93127.28;;;0.90;54.51
67377;BME280;54261;46.086;6.588;2023-11-22T21:30:11;93125.28;;;3.51;49.17
67377;BME280;54261;46.086;6.588;2023-11-22T21:35:14;93130.72;;;4.56;47.83
67377;BME280;54261;46.086;6.588;2023-11-22T21:40:17;93139.00;;;5.02;46.05
67377;BME280;54261;46.086;6.588;2023-11-22T21:45:19;93145.59;;;5.40;45.75
67377;BME280;54261;46.086;6.588;2023-11-22T21:50:21;93138.44;;;5.57;44.36
67377;BME280;54261;46.086;6.588;2023-11-22T21:55:23;93127.25;;;5.49;43.59
67377;BME280;54261;46.086;6.588;2023-11-22T22:00:25;93135.94;;;5.86;43.23
67377;BME280;54261;46.086;6.588;2023-11-22T22:05:26;93129.81;;;5.86;42.87
67377;BME280;54261;46.086;6.588;2023-11-22T22:10:28;93135.88;;;3.08;47.15
67377;BME280;54261;46.086;6.588;2023-11-22T22:15:30;93142.91;;;4.42;46.63
67377;BME280;54261;46.086;6.588;2023-11-22T22:20:32;93135.91;;;3.56;48.27
67377;BME280;54261;46.086;6.588;2023-11-22T22:25:47;93137.38;;;4.85;45.00
67377;BME280;54261;46.086;6.588;2023-11-22T22:30:49;93146.16;;;5.22;44.41
67377;BME280;54261;46.086;6.588;2023-11-22T22:35:51;93143.97;;;5.76;43.77
67377;BME280;54261;46.086;6.588;2023-11-22T22:40:53;93141.34;;;5.39;43.66
67377;BME280;54261;46.086;6.588;2023-11-22T22:45:55;93143.75;;;5.51;42.94
67377;BME280;54261;46.086;6.588;2023-11-22T22:50:57;93148.00;;;5.68;43.17
67377;BME280;54261;46.086;6.588;2023-11-22T22:55:59;93144.72;;;5.92;42.54
67377;BME280;54261;46.086;6.588;2023-11-22T23:01:03;93158.41;;;5.44;42.75
67377;BME280;54261;46.086;6.588;2023-11-22T23:06:05;93172.22;;;5.66;42.56
67377;BME280;54261;46.086;6.588;2023-11-22T23:11:09;93178.34;;;5.67;42.31
67377;BME280;54261;46.086;6.588;2023-11-22T23:16:11;93189.06;;;3.67;45.17
67377;BME280;54261;46.086;6.588;2023-11-22T23:21:13;93198.38;;;1.99;49.99
67377;BME280;54261;46.086;6.588;2023-11-22T23:26:18;93192.56;;;3.73;46.33
67377;BME280;54261;46.086;6.588;2023-11-22T23:31:20;93187.38;;;3.98;46.65
67377;BME280;54261;46.086;6.588;2023-11-22T23:36:22;93190.69;;;1.19;51.92
67377;BME280;54261;46.086;6.588;2023-11-22T23:41:26;93184.69;;;2.52;49.80
67377;BME280;54261;46.086;6.588;2023-11-22T23:46:28;93177.06;;;3.59;48.34
67377;BME280;54261;46.086;6.588;2023-11-22T23:51:33;93176.66;;;3.83;47.42
67377;BME280;54261;46.086;6.588;2023-11-22T23:56:36;93176.03;;;4.13;46.74
